createdAt,value
2023-02-13T00:00:26.686Z,102234.16
2023-02-13T00:03:29.919Z,102230.69
2023-02-13T00:06:32.664Z,102227.25
2023-02-13T00:09:35.856Z,102225.53
2023-02-13T00:12:38.605Z,102230.69
2023-02-13T00:15:41.519Z,102229.81
2023-02-13T00:18:44.206Z,102230.69
2023-02-13T00:21:47.468Z,102235.91
2023-02-13T00:24:50.137Z,102236.78
2023-02-13T00:27:54.178Z,102235.88
2023-02-13T00:31:09.091Z,102233.28
2023-02-13T00:34:12.095Z,102250.59
2023-02-13T00:37:14.705Z,102235.88
2023-02-13T00:40:20.121Z,102240.19
2023-02-13T00:43:23.030Z,102243.66
2023-02-13T00:46:26.002Z,102240.19
2023-02-13T00:49:29.123Z,102240.22
2023-02-13T00:52:32.067Z,102241.09
2023-02-13T00:55:35.812Z,102243.69
2023-02-13T00:58:39.005Z,102239.38
2023-02-13T01:01:41.776Z,102224.66
2023-02-13T01:04:44.780Z,102215.16
2023-02-13T01:07:47.613Z,102220.34
2023-02-13T01:10:50.921Z,102220.28
2023-02-13T01:13:53.758Z,102211.66
2023-02-13T01:16:57.092Z,102216.84
2023-02-13T01:19:59.928Z,102210.81
2023-02-13T01:23:03.071Z,102217.72
2023-02-13T01:26:08.090Z,102216.84
2023-02-13T01:29:14.492Z,102215.94
2023-02-13T01:32:17.181Z,102203.88
2023-02-13T01:35:21.401Z,102215.97
2023-02-13T01:38:24.029Z,102212.50
2023-02-13T01:41:28.710Z,102206.44
2023-02-13T01:44:50.716Z,102213.34
2023-02-13T01:48:07.707Z,102209.00
2023-02-13T01:51:17.047Z,102208.22
2023-02-13T01:54:31.284Z,102221.16
2023-02-13T01:57:35.423Z,102212.50
2023-02-13T02:00:40.424Z,102212.50
2023-02-13T02:04:00.695Z,102211.62
2023-02-13T02:07:13.941Z,102209.87
2023-02-13T02:10:19.510Z,102203.00
2023-02-13T02:13:22.878Z,102205.56
2023-02-13T02:16:27.089Z,102196.94
2023-02-13T02:20:10.695Z,102198.69
2023-02-13T02:23:28.635Z,102201.25
2023-02-13T02:26:44.069Z,102205.63
2023-02-13T02:30:08.604Z,102207.31
2023-02-13T02:33:24.361Z,102206.37
2023-02-13T02:36:27.716Z,102201.25
2023-02-13T02:39:37.461Z,102211.62
2023-02-13T02:42:43.554Z,102206.44
2023-02-13T02:46:12.428Z,102205.56
2023-02-13T02:49:35.886Z,102211.59
2023-02-13T02:52:48.250Z,102204.66
2023-02-13T02:55:55.380Z,102205.53
2023-02-13T02:59:24.213Z,102205.47
2023-02-13T03:02:49.183Z,102203.72
2023-02-13T03:06:11.058Z,102206.34
2023-02-13T03:09:39.064Z,102196.00
2023-02-13T03:13:08.608Z,102190.84
2023-02-13T03:16:35.889Z,102186.50
2023-02-13T03:20:09.754Z,102193.44
2023-02-13T03:23:41.862Z,102195.16
2023-02-13T03:37:39.354Z,102197.72
2023-02-13T03:41:14.046Z,102196.84
2023-02-13T03:44:26.002Z,102196.81
2023-02-13T03:47:29.075Z,102195.91
2023-02-13T03:50:31.751Z,102189.81
2023-02-13T03:53:38.313Z,102186.41
2023-02-13T03:57:00.936Z,102189.84
2023-02-13T04:00:09.515Z,102187.28
2023-02-13T04:03:24.480Z,102178.66
2023-02-13T04:06:32.893Z,102178.66
2023-02-13T04:09:39.181Z,102185.56
2023-02-13T04:12:47.643Z,102189.91
2023-02-13T04:15:57.092Z,102192.50
2023-02-13T04:19:01.776Z,102198.50
2023-02-13T04:22:04.522Z,102207.09
2023-02-13T04:25:07.730Z,102202.75
2023-02-13T04:28:10.344Z,102195.81
2023-02-13T04:31:13.757Z,102188.91
2023-02-13T04:34:16.822Z,102183.69
2023-02-13T04:37:20.635Z,102178.50
2023-02-13T04:40:23.173Z,102179.47
2023-02-13T04:43:26.488Z,102179.37
2023-02-13T04:46:29.309Z,102172.50
2023-02-13T04:49:32.279Z,102172.41
2023-02-13T04:52:35.013Z,102177.53
2023-02-13T04:55:37.856Z,102181.81
2023-02-13T04:58:42.072Z,102172.31
2023-02-13T05:01:45.220Z,102174.88
2023-02-13T05:04:48.091Z,102173.97
2023-02-13T05:07:51.110Z,102164.41
2023-02-13T05:10:53.991Z,102166.97
2023-02-13T05:13:56.950Z,102160.94
2023-02-13T05:16:59.537Z,102162.78
2023-02-13T05:20:02.914Z,102166.25
2023-02-13T05:23:25.931Z,102171.25
2023-02-13T05:26:28.982Z,102161.78
2023-02-13T05:29:31.554Z,102161.63
2023-02-13T05:32:34.868Z,102158.16
2023-02-13T05:35:37.430Z,102149.53
2023-02-13T05:38:41.419Z,102142.66
2023-02-13T05:41:45.609Z,102150.50
2023-02-13T05:44:48.646Z,102152.25
2023-02-13T05:47:51.383Z,102147.97
2023-02-13T05:50:54.703Z,102153.94
2023-02-13T05:53:58.097Z,102159.09
2023-02-13T05:57:01.482Z,102155.66
2023-02-13T06:00:05.761Z,102157.41
2023-02-13T06:03:08.112Z,102176.41
2023-02-13T06:06:11.105Z,102166.88
2023-02-13T06:09:17.832Z,102168.59
2023-02-13T06:12:21.910Z,102172.97
2023-02-13T06:15:29.731Z,102179.06
2023-02-13T06:18:32.835Z,102188.81
2023-02-13T06:21:37.979Z,102197.62
2023-02-13T06:24:42.150Z,102209.03
2023-02-13T06:27:44.931Z,102209.09
2023-02-13T06:30:49.350Z,102208.19
2023-02-13T06:33:52.031Z,102213.34
2023-02-13T06:36:55.013Z,102215.91
2023-02-13T06:39:57.802Z,102211.47
2023-02-13T06:43:00.794Z,102209.44
2023-02-13T06:46:07.412Z,102204.28
2023-02-13T06:49:11.321Z,102205.84
2023-02-13T06:52:14.412Z,102213.72
2023-02-13T06:55:18.284Z,102205.03
2023-02-13T06:58:22.968Z,102219.63
2023-02-13T07:01:26.095Z,102208.41
2023-02-13T07:04:29.066Z,102218.22
2023-02-13T07:07:36.333Z,102212.81
2023-02-13T07:10:41.522Z,102219.78
2023-02-13T07:13:44.786Z,102212.66
2023-02-13T07:16:47.507Z,102213.13
2023-02-13T07:19:50.538Z,102216.50
2023-02-13T07:22:59.979Z,102217.47
2023-02-13T07:26:03.170Z,102218.03
2023-02-13T07:29:13.338Z,102221.19
2023-02-13T08:33:10.831Z,102227.78
2023-02-13T08:36:15.075Z,102219.72
2023-02-13T08:39:20.254Z,102224.62
2023-02-13T08:59:37.320Z,102212.16
2023-02-13T09:02:42.430Z,102214.75
2023-02-13T09:05:45.648Z,102226.75
2023-02-13T17:04:24.726Z,101970.22
2023-02-13T17:07:34.164Z,101970.22
